Time;durP1;ratioP1;P1;durP2;ratioP2;P2;SDS_P1;SDS_P2;PMS_P1;PMS_P2;Temp;Humidity;BMP_temperature;BMP_pressure;BME280_temperature;BME280_humidity;BME280_pressure;Samples;Min_cycle;Max_cycle;Signal;HPM_P1;HPM_P2
2022/05/25 00:00:37;;;;;;;3.80;3.60;;;14.20;1.00;;;;;;6184000;28;20589;-51
2022/05/25 00:03:40;;;;;;;3.27;3.20;;;14.20;1.00;;;;;;6182197;28;20310;-52
2022/05/25 00:06:44;;;;;;;3.80;3.70;;;14.20;1.00;;;;;;6186302;28;20243;-52
2022/05/25 00:09:47;;;;;;;3.40;3.30;;;14.10;1.00;;;;;;6189627;28;20740;-52
2022/05/25 00:12:51;;;;;;;3.60;3.50;;;14.00;1.00;;;;;;6177675;28;20338;-52
2022/05/25 00:15:54;;;;;;;3.93;3.73;;;14.00;1.00;;;;;;6168150;28;20446;-51
2022/05/25 00:22:18;;;;;;;3.27;3.20;;;13.90;1.00;;;;;;6153767;28;20236;-51
2022/05/25 00:25:22;;;;;;;3.77;3.57;;;13.80;1.00;;;;;;6174360;28;20796;-52
2022/05/25 00:28:26;;;;;;;4.33;4.23;;;13.80;1.00;;;;;;6172431;28;20319;-52
2022/05/25 00:31:30;;;;;;;4.33;4.13;;;13.70;1.00;;;;;;6176965;28;20494;-52
2022/05/25 00:34:34;;;;;;;4.37;4.17;;;13.70;1.00;;;;;;6199549;28;20227;-51
2022/05/25 00:37:37;;;;;;;4.40;4.00;;;13.70;1.00;;;;;;6172843;28;20300;-53
2022/05/25 00:40:42;;;;;;;4.30;4.10;;;13.70;1.00;;;;;;6183688;28;20314;-52
2022/05/25 00:43:46;;;;;;;3.90;3.80;;;13.80;1.00;;;;;;6187859;28;20314;-51
2022/05/25 00:46:49;;;;;;;3.53;3.37;;;13.70;1.00;;;;;;6166273;28;20259;-50
2022/05/25 00:49:51;;;;;;;3.60;3.50;;;13.70;1.00;;;;;;6181873;28;20526;-51
2022/05/25 00:52:54;;;;;;;3.50;3.40;;;13.70;1.00;;;;;;6188580;28;20240;-52
2022/05/25 00:55:57;;;;;;;3.80;3.70;;;13.70;1.00;;;;;;6200987;28;20318;-52
2022/05/25 00:59:04;;;;;;;4.00;3.90;;;13.70;1.00;;;;;;6166057;28;20240;-51
2022/05/25 01:02:07;;;;;;;3.83;3.73;;;13.60;1.00;;;;;;6198060;28;20231;-51
2022/05/25 01:05:11;;;;;;;3.77;3.57;;;13.60;1.00;;;;;;6174685;28;20765;-52
2022/05/25 01:08:29;;;;;;;4.20;4.00;;;13.50;1.00;;;;;;6161924;28;20262;-52
2022/05/25 01:11:43;;;;;;;4.20;3.93;;;13.50;1.00;;;;;;6178395;28;20232;-52
2022/05/25 01:15:02;;;;;;;4.10;4.00;;;13.40;1.00;;;;;;6190082;28;20638;-52
2022/05/25 01:18:20;;;;;;;4.57;4.27;;;13.40;1.00;;;;;;6161935;28;20740;-52
2022/05/25 01:21:29;;;;;;;4.43;4.30;;;13.40;1.00;;;;;;6180605;28;20323;-52
2022/05/25 01:24:37;;;;;;;3.93;3.83;;;13.30;1.00;;;;;;6199431;28;20241;-53
2022/05/25 01:27:43;;;;;;;3.80;3.70;;;13.30;1.00;;;;;;6190466;28;20730;-52
2022/05/25 01:30:52;;;;;;;4.27;4.07;;;13.20;1.00;;;;;;6172133;28;20698;-52
2022/05/25 01:33:59;;;;;;;5.00;4.80;;;13.10;1.00;;;;;;6176540;28;20229;-52
2022/05/25 01:37:08;;;;;;;4.50;4.30;;;13.10;1.00;;;;;;6175819;28;20241;-54
2022/05/25 01:40:21;;;;;;;4.37;4.23;;;13.10;1.00;;;;;;6185292;28;20227;-52
2022/05/25 01:43:30;;;;;;;4.23;4.03;;;13.00;1.00;;;;;;6192907;28;20830;-53
2022/05/25 01:46:38;;;;;;;3.80;3.80;;;13.00;1.00;;;;;;6196119;28;20579;-51
2022/05/25 01:49:46;;;;;;;4.47;4.27;;;13.00;1.00;;;;;;6189615;28;20938;-52
2022/05/25 01:52:54;;;;;;;4.50;4.30;;;12.90;1.00;;;;;;6189676;28;20701;-53
2022/05/25 01:56:02;;;;;;;4.27;4.17;;;12.90;1.00;;;;;;6188804;28;20408;-52
2022/05/25 01:59:08;;;;;;;4.47;4.30;;;12.90;1.00;;;;;;6179273;28;20249;-51
2022/05/25 02:05:36;;;;;;;4.20;4.10;;;12.90;1.00;;;;;;6195150;28;20740;-51
2022/05/25 02:08:48;;;;;;;3.90;3.80;;;12.90;1.00;;;;;;6199292;28;20243;-52
2022/05/25 02:11:58;;;;;;;4.30;4.20;;;12.90;1.00;;;;;;6186171;28;20442;-51
2022/05/25 02:15:11;;;;;;;4.53;4.33;;;12.90;1.00;;;;;;6185149;28;20418;-51
2022/05/25 02:18:26;;;;;;;4.57;4.47;;;12.90;1.00;;;;;;6182482;28;20315;-52
2022/05/25 02:21:33;;;;;;;5.00;4.80;;;12.90;1.00;;;;;;6174830;28;20243;-51
2022/05/25 02:24:41;;;;;;;4.13;4.03;;;12.90;1.00;;;;;;6195650;28;20319;-52
2022/05/25 02:27:48;;;;;;;4.47;4.33;;;12.90;1.00;;;;;;6187725;28;20247;-52
2022/05/25 02:30:55;;;;;;;4.47;4.37;;;12.80;1.00;;;;;;6207254;28;20676;-51
2022/05/25 02:34:02;;;;;;;5.00;4.80;;;12.80;1.00;;;;;;6170904;28;20290;-51
2022/05/25 02:37:06;;;;;;;4.83;4.73;;;12.80;1.00;;;;;;6183130;28;20446;-50
2022/05/25 02:40:10;;;;;;;4.80;4.60;;;12.80;1.00;;;;;;6177586;28;20232;-52
2022/05/25 02:43:13;;;;;;;4.83;4.60;;;12.90;1.00;;;;;;6190951;28;20311;-51
2022/05/25 02:46:16;;;;;;;4.07;3.97;;;12.90;1.00;;;;;;6194892;28;20322;-52
2022/05/25 02:49:20;;;;;;;4.83;4.63;;;12.90;1.00;;;;;;6184536;28;20512;-51
2022/05/25 02:52:23;;;;;;;4.73;4.53;;;13.00;1.00;;;;;;6186982;28;20228;-52
2022/05/25 02:55:26;;;;;;;4.40;4.30;;;13.00;1.00;;;;;;6198719;28;20539;-52
2022/05/25 02:58:28;;;;;;;5.00;4.80;;;13.10;1.00;;;;;;6192998;28;20302;-51
2022/05/25 03:01:31;;;;;;;6.43;6.03;;;13.10;1.00;;;;;;6167329;28;20299;-52
2022/05/25 03:04:38;;;;;;;4.53;4.33;;;13.20;1.00;;;;;;6184660;28;20310;-52
2022/05/25 03:07:40;;;;;;;5.37;5.17;;;13.30;1.00;;;;;;6186225;28;20252;-52
2022/05/25 03:10:43;;;;;;;5.80;5.50;;;13.30;1.00;;;;;;6184125;28;20728;-51
2022/05/25 03:13:48;;;;;;;5.63;5.40;;;13.40;1.00;;;;;;6190182;28;20634;-52
2022/05/25 03:16:51;;;;;;;5.33;5.00;;;13.50;1.00;;;;;;6183099;28;20741;-52
2022/05/25 03:19:57;;;;;;;5.50;5.20;;;13.50;1.00;;;;;;6175317;28;20287;-53
2022/05/25 03:22:59;;;;;;;4.80;4.50;;;13.60;1.00;;;;;;6179229;28;20242;-52
2022/05/25 03:26:02;;;;;;;5.63;5.30;;;13.60;1.00;;;;;;6210278;28;20326;-51
2022/05/25 03:29:05;;;;;;;4.97;4.60;;;13.70;1.00;;;;;;6171200;28;20243;-52
2022/05/25 03:32:08;;;;;;;5.00;4.80;;;13.70;1.00;;;;;;6174177;28;20372;-52
2022/05/25 03:35:13;;;;;;;5.10;4.90;;;13.80;1.00;;;;;;6199954;28;20421;-51
2022/05/25 03:38:16;;;;;;;4.87;4.47;;;13.80;1.00;;;;;;6157252;28;20350;-51
2022/05/25 03:41:20;;;;;;;7.03;6.40;;;13.90;1.00;;;;;;6181860;28;20371;-52
2022/05/25 03:44:24;;;;;;;4.97;4.77;;;14.00;1.00;;;;;;6186203;28;20305;-51
2022/05/25 03:47:26;;;;;;;5.57;5.37;;;14.00;1.00;;;;;;6196131;28;20293;-52
2022/05/25 03:50:30;;;;;;;5.20;5.00;;;14.10;1.00;;;;;;6180047;28;20509;-52
2022/05/25 03:53:33;;;;;;;4.67;4.57;;;14.10;1.00;;;;;;6184684;28;20535;-52
2022/05/25 03:56:36;;;;;;;5.40;5.03;;;14.20;1.00;;;;;;6184806;28;20247;-52
2022/05/25 03:59:38;;;;;;;4.60;4.40;;;14.20;1.00;;;;;;6176383;28;20313;-51
2022/05/25 04:02:41;;;;;;;4.43;4.30;;;14.20;1.00;;;;;;6184574;28;20283;-50
2022/05/25 04:05:45;;;;;;;4.63;4.53;;;14.30;1.00;;;;;;6177532;28;20318;-53
2022/05/25 04:08:48;;;;;;;4.63;4.53;;;14.30;1.00;;;;;;6180330;28;20259;-56
2022/05/25 04:11:51;;;;;;;5.27;4.93;;;14.40;1.00;;;;;;6194909;28;20806;-51
2022/05/25 04:14:54;;;;;;;4.70;4.60;;;14.50;1.00;;;;;;6180710;28;20231;-52
2022/05/25 04:17:57;;;;;;;4.40;4.30;;;14.50;1.00;;;;;;6178503;28;20235;-53
2022/05/25 04:21:01;;;;;;;5.73;5.43;;;14.60;1.00;;;;;;6182484;28;20754;-55
2022/05/25 04:24:04;;;;;;;6.00;5.50;;;14.70;1.00;;;;;;6182598;28;20523;-53
2022/05/25 04:27:07;;;;;;;5.90;5.47;;;14.80;1.00;;;;;;6200800;28;20314;-52
2022/05/25 04:30:14;;;;;;;5.47;5.17;;;14.90;1.00;;;;;;6179036;28;20666;-51
2022/05/25 04:33:17;;;;;;;5.67;5.37;;;14.90;1.00;;;;;;6175118;28;20762;-51
2022/05/25 04:36:22;;;;;;;4.90;4.70;;;15.00;1.00;;;;;;6181957;28;20248;-52
2022/05/25 04:39:24;;;;;;;5.30;5.10;;;15.00;1.00;;;;;;6184047;28;20236;-52
2022/05/25 04:42:29;;;;;;;5.50;5.20;;;15.10;1.00;;;;;;6192162;28;20399;-52
2022/05/25 04:45:32;;;;;;;5.03;4.73;;;15.10;1.00;;;;;;6189439;28;20232;-51
2022/05/25 04:48:35;;;;;;;4.67;4.47;;;15.20;1.00;;;;;;6175476;28;20363;-52
2022/05/25 04:51:39;;;;;;;5.77;5.27;;;15.20;1.00;;;;;;6170175;28;20361;-48
2022/05/25 04:54:42;;;;;;;5.03;4.83;;;15.20;1.00;;;;;;6189553;28;20618;-51
2022/05/25 04:57:43;;;;;;;5.37;5.00;;;15.30;1.00;;;;;;6180462;28;20391;-51
2022/05/25 05:00:46;;;;;;;5.27;5.07;;;15.40;1.00;;;;;;6184621;28;20736;-51
2022/05/25 05:03:50;;;;;;;5.47;5.07;;;15.40;1.00;;;;;;6187030;28;20732;-52
2022/05/25 05:06:54;;;;;;;5.60;5.40;;;15.50;1.00;;;;;;6185737;28;20319;-52
2022/05/25 05:09:57;;;;;;;4.87;4.63;;;15.50;1.00;;;;;;6189112;28;20378;-53
2022/05/25 05:13:04;;;;;;;5.23;4.90;;;15.60;1.00;;;;;;6190065;28;20246;-51
2022/05/25 05:16:09;;;;;;;5.37;5.17;;;15.70;1.00;;;;;;6173695;28;20371;-52
2022/05/25 05:19:12;;;;;;;5.20;4.87;;;15.90;1.00;;;;;;6181946;28;20342;-51
2022/05/25 05:22:17;;;;;;;4.80;4.70;;;16.00;1.00;;;;;;6179279;28;20536;-53
2022/05/25 05:25:20;;;;;;;4.63;4.43;;;16.20;1.00;;;;;;6187052;28;20525;-52
2022/05/25 05:28:29;;;;;;;4.90;4.80;;;16.50;1.00;;;;;;6187054;28;20309;-52
2022/05/25 05:31:31;;;;;;;4.70;4.50;;;16.70;1.00;;;;;;6185270;28;20266;-55
2022/05/25 05:34:34;;;;;;;4.97;4.57;;;17.00;1.00;;;;;;6197072;28;20247;-52
2022/05/25 05:37:42;;;;;;;5.23;4.80;;;17.20;1.00;;;;;;6190703;28;20267;-52
2022/05/25 05:40:45;;;;;;;6.10;4.30;;;17.50;1.00;;;;;;6186986;28;20258;-54
2022/05/25 05:43:49;;;;;;;6.40;4.27;;;17.70;1.00;;;;;;6202018;28;20245;-52
2022/05/25 05:46:53;;;;;;;5.23;4.93;;;18.10;1.00;;;;;;6199661;28;20409;-53
2022/05/25 05:49:56;;;;;;;4.80;4.70;;;18.10;1.00;;;;;;6177118;28;20254;-61
2022/05/25 05:53:01;;;;;;;5.20;4.40;;;18.00;1.00;;;;;;6189084;28;20228;-53
2022/05/25 05:56:05;;;;;;;5.20;5.00;;;17.80;1.00;;;;;;6188451;28;20231;-53
2022/05/25 05:59:08;;;;;;;6.80;4.77;;;17.90;1.00;;;;;;6192598;28;20719;-53
2022/05/25 06:02:11;;;;;;;5.27;5.07;;;18.10;1.00;;;;;;6197252;28;20909;-52
2022/05/25 06:05:13;;;;;;;5.20;4.90;;;18.40;1.00;;;;;;6182231;28;20240;-53
2022/05/25 06:08:21;;;;;;;5.23;5.10;;;18.50;1.00;;;;;;6190615;28;20240;-52
2022/05/25 06:11:23;;;;;;;5.30;5.10;;;18.80;1.00;;;;;;6192767;28;20724;-52
2022/05/25 06:14:26;;;;;;;5.10;4.80;;;19.00;1.00;;;;;;6193666;28;20756;-54
2022/05/25 06:20:48;;;;;;;4.80;4.53;;;19.30;1.00;;;;;;6151120;28;20303;-54
2022/05/25 06:23:52;;;;;;;5.30;4.83;;;19.50;1.00;;;;;;6191669;28;20277;-52
2022/05/25 06:26:55;;;;;;;4.90;4.70;;;19.60;1.00;;;;;;6196341;28;20748;-55
2022/05/25 06:29:58;;;;;;;5.27;4.77;;;19.60;1.00;;;;;;6187292;28;20327;-51
2022/05/25 06:33:01;;;;;;;4.63;4.43;;;19.70;1.00;;;;;;6185690;28;20720;-52
2022/05/25 06:36:15;;;;;;;5.30;5.00;;;20.00;1.00;;;;;;6177753;28;20240;-52
2022/05/25 06:39:19;;;;;;;5.30;5.00;;;19.90;1.00;;;;;;6182242;28;20721;-53
2022/05/25 06:42:22;;;;;;;5.93;5.43;;;20.00;1.00;;;;;;6189666;28;20255;-53
2022/05/25 06:45:25;;;;;;;5.30;5.00;;;19.90;1.00;;;;;;6194856;28;20710;-52
2022/05/25 06:48:28;;;;;;;5.13;4.93;;;19.50;1.00;;;;;;6196482;28;20237;-52
2022/05/25 06:51:33;;;;;;;5.00;4.80;;;19.50;1.00;;;;;;6179316;28;20357;-50
2022/05/25 06:54:43;;;;;;;5.43;5.23;;;19.50;1.00;;;;;;6192879;28;20277;-52
2022/05/25 06:57:45;;;;;;;5.53;5.10;;;19.60;1.00;;;;;;6195966;28;20248;-52
2022/05/25 07:00:48;;;;;;;5.40;5.00;;;19.60;1.00;;;;;;6192089;28;20487;-52
2022/05/25 07:03:52;;;;;;;5.90;5.50;;;19.60;1.00;;;;;;6198247;28;20271;-51
2022/05/25 07:06:55;;;;;;;5.77;5.43;;;19.30;1.00;;;;;;6188733;28;20252;-52
2022/05/25 07:09:59;;;;;;;5.03;4.73;;;19.40;1.00;;;;;;6182671;28;20274;-52
2022/05/25 07:13:02;;;;;;;5.83;5.30;;;19.30;1.00;;;;;;6198924;28;20373;-52
2022/05/25 07:16:08;;;;;;;5.97;5.43;;;19.20;1.00;;;;;;6185741;28;20271;-52
2022/05/25 07:19:11;;;;;;;5.50;5.20;;;19.10;1.00;;;;;;6190059;28;20446;-52
2022/05/25 07:22:14;;;;;;;6.10;5.80;;;19.10;1.00;;;;;;6180974;28;20743;-52
2022/05/25 07:25:23;;;;;;;5.77;5.50;;;19.10;1.00;;;;;;6194322;28;20228;-52
2022/05/25 07:28:25;;;;;;;5.40;4.97;;;19.00;1.00;;;;;;6191621;28;20236;-51
2022/05/25 07:31:32;;;;;;;6.13;5.73;;;18.70;1.00;;;;;;6192429;28;20242;-50
2022/05/25 07:34:41;;;;;;;5.37;5.00;;;18.40;1.00;;;;;;6185273;28;20254;-50
2022/05/25 07:37:50;;;;;;;5.20;4.93;;;18.20;1.00;;;;;;6189754;28;20293;-51
2022/05/25 07:40:54;;;;;;;5.03;4.73;;;18.20;1.00;;;;;;6185811;28;20386;-51
2022/05/25 07:43:58;;;;;;;4.97;4.53;;;18.20;1.00;;;;;;6194019;28;20239;-53
2022/05/25 07:47:01;;;;;;;4.30;4.10;;;18.00;1.00;;;;;;6198334;28;20244;-52
2022/05/25 07:50:05;;;;;;;4.90;4.60;;;18.00;1.00;;;;;;6177708;28;20611;-52
2022/05/25 07:53:55;;;;;;;4.43;4.13;;;18.10;1.00;;;;;;6189210;28;20326;-52
2022/05/25 07:56:35;;;;;;;4.10;3.90;;;18.20;1.00;;;;;;6194695;28;20251;-55
2022/05/25 07:59:38;;;;;;;4.60;4.30;;;18.30;1.00;;;;;;6185308;28;20603;-52
2022/05/25 08:06:04;;;;;;;4.50;4.40;;;18.60;1.00;;;;;;6185949;28;20322;-52
2022/05/25 08:09:06;;;;;;;4.47;4.27;;;18.50;1.00;;;;;;6185185;28;20281;-51
2022/05/25 08:12:12;;;;;;;5.07;4.63;;;18.40;1.00;;;;;;6190545;28;20370;-51
2022/05/25 08:15:16;;;;;;;4.50;4.37;;;18.20;1.00;;;;;;6181330;28;20236;-53
2022/05/25 08:18:19;;;;;;;4.83;4.53;;;18.20;1.00;;;;;;6189857;28;20374;-52
2022/05/25 08:21:22;;;;;;;5.03;4.63;;;18.10;1.00;;;;;;6191279;28;20250;-51
2022/05/25 08:24:45;;;;;;;5.10;4.90;;;18.30;1.00;;;;;;6185064;28;20618;-51
2022/05/25 08:27:49;;;;;;;4.53;4.33;;;18.40;1.00;;;;;;6194670;28;20244;-52
2022/05/25 08:30:52;;;;;;;4.60;4.07;;;18.40;1.00;;;;;;6190447;28;20264;-50
2022/05/25 08:33:55;;;;;;;5.00;4.50;;;18.40;1.00;;;;;;6182987;28;20262;-52
2022/05/25 08:36:58;;;;;;;5.13;4.93;;;18.40;1.00;;;;;;6179109;28;20514;-52
2022/05/25 08:40:01;;;;;;;5.10;4.60;;;18.50;1.00;;;;;;6188536;28;20279;-50
2022/05/25 08:43:08;;;;;;;4.07;3.87;;;18.70;1.00;;;;;;6200608;28;20239;-52
2022/05/25 08:46:14;;;;;;;4.40;3.87;;;18.90;1.00;;;;;;6194399;28;20258;-52
2022/05/25 08:49:18;;;;;;;3.80;3.50;;;19.10;1.00;;;;;;6185953;28;20239;-52
2022/05/25 08:52:31;;;;;;;4.33;4.00;;;19.10;1.00;;;;;;6177750;28;20236;-51
2022/05/25 08:55:49;;;;;;;4.00;3.80;;;18.80;1.00;;;;;;6198913;28;20673;-50
2022/05/25 08:59:02;;;;;;;4.20;3.90;;;18.80;1.00;;;;;;6199470;28;20326;-52
2022/05/25 09:02:13;;;;;;;4.70;4.50;;;18.50;1.00;;;;;;6200596;28;20239;-51
2022/05/25 09:05:23;;;;;;;3.67;3.47;;;18.50;1.00;;;;;;6189526;28;20326;-52
2022/05/25 09:08:32;;;;;;;4.50;4.07;;;18.70;1.00;;;;;;6195621;28;20827;-52
2022/05/25 09:11:44;;;;;;;3.83;3.63;;;18.90;1.00;;;;;;6192044;28;20241;-52
2022/05/25 09:14:53;;;;;;;4.27;4.10;;;19.20;1.00;;;;;;6190267;28;20247;-52
2022/05/25 09:18:01;;;;;;;4.07;3.87;;;19.50;1.00;;;;;;6184681;28;20243;-52
2022/05/25 09:21:06;;;;;;;3.43;3.23;;;19.50;1.00;;;;;;6173733;28;20767;-52
2022/05/25 09:24:12;;;;;;;3.17;2.97;;;19.70;1.00;;;;;;6189383;28;20650;-52
2022/05/25 09:27:17;;;;;;;3.57;3.33;;;20.10;1.00;;;;;;6185638;28;20236;-52
2022/05/25 09:30:22;;;;;;;3.63;3.33;;;20.10;1.00;;;;;;6161423;28;20709;-51
2022/05/25 09:33:33;;;;;;;3.37;3.17;;;19.90;1.00;;;;;;6184657;28;20315;-52
2022/05/25 09:36:40;;;;;;;2.90;2.80;;;20.00;1.00;;;;;;6181137;28;20410;-51
2022/05/25 09:39:45;;;;;;;3.00;2.80;;;20.10;1.00;;;;;;6194182;28;20296;-52
2022/05/25 09:42:51;;;;;;;2.57;2.47;;;20.20;1.00;;;;;;6190696;28;20266;-50
2022/05/25 09:45:59;;;;;;;7.10;2.90;;;20.10;1.00;;;;;;6195249;28;20272;-52
2022/05/25 09:49:06;;;;;;;3.20;3.10;;;20.20;1.00;;;;;;6187778;28;20232;-53
2022/05/25 09:52:15;;;;;;;2.87;2.87;;;20.20;1.00;;;;;;6178229;28;20732;-50
2022/05/25 09:55:23;;;;;;;3.70;2.80;;;20.10;1.00;;;;;;6192615;28;20267;-51
2022/05/25 09:58:31;;;;;;;2.90;2.80;;;20.00;1.00;;;;;;6195204;28;20938;-51
2022/05/25 10:01:42;;;;;;;3.37;3.10;;;19.80;1.00;;;;;;6188318;28;20366;-51
2022/05/25 10:04:52;;;;;;;4.73;3.03;;;19.80;1.00;;;;;;6185674;28;20244;-51
2022/05/25 10:07:59;;;;;;;2.80;2.70;;;19.60;1.00;;;;;;6183018;28;20705;-53
2022/05/25 10:11:27;;;;;;;2.50;2.40;;;19.50;1.00;;;;;;6190549;28;20271;-50
2022/05/25 10:14:33;;;;;;;3.33;2.60;;;19.30;1.00;;;;;;6185879;28;20223;-51
2022/05/25 10:17:40;;;;;;;2.73;2.63;;;19.40;1.00;;;;;;6193229;28;20731;-53
2022/05/25 10:20:47;;;;;;;2.47;2.47;;;19.50;1.00;;;;;;6189979;28;20733;-51
2022/05/25 10:23:50;;;;;;;2.40;2.30;;;19.80;1.00;;;;;;6191004;28;20232;-52
2022/05/25 10:26:56;;;;;;;2.80;2.70;;;19.80;1.00;;;;;;6199780;28;20486;-52
2022/05/25 10:36:56;;;;;;;2.73;2.20;;;20.30;1.00;;;;;;6186130;28;20750;-52
2022/05/25 10:40:02;;;;;;;2.80;2.60;;;20.50;1.00;;;;;;6188835;28;20249;-52
2022/05/25 10:43:05;;;;;;;2.10;2.00;;;20.50;1.00;;;;;;6189323;28;20654;-52
2022/05/25 10:46:08;;;;;;;2.60;2.50;;;20.60;1.00;;;;;;6181601;28;20314;-51
2022/05/25 10:49:20;;;;;;;2.47;2.30;;;20.90;1.00;;;;;;6179451;28;20239;-52
2022/05/25 10:52:29;;;;;;;1.90;1.80;;;21.20;1.00;;;;;;6180840;28;20375;-52
2022/05/25 10:55:37;;;;;;;1.90;1.87;;;21.40;1.00;;;;;;6193992;28;20318;-52
2022/05/25 10:59:01;;;;;;;2.10;2.00;;;21.40;1.00;;;;;;6189494;28;20264;-52
2022/05/25 11:02:21;;;;;;;3.20;2.00;;;21.20;1.00;;;;;;6179245;28;20240;-52
2022/05/25 11:05:38;;;;;;;2.27;2.17;;;21.30;1.00;;;;;;6180928;28;20300;-52
2022/05/25 11:08:51;;;;;;;2.20;2.10;;;21.50;1.00;;;;;;6185425;28;20252;-51
2022/05/25 11:12:02;;;;;;;1.80;1.70;;;21.60;1.00;;;;;;6188173;28;20377;-51
2022/05/25 11:15:13;;;;;;;2.40;2.10;;;21.80;1.00;;;;;;6168529;28;20286;-52
2022/05/25 11:18:30;;;;;;;2.00;2.00;;;22.00;1.00;;;;;;6178575;28;20299;-52
2022/05/25 11:21:42;;;;;;;1.97;1.97;;;22.00;1.00;;;;;;6185763;28;20267;-51
2022/05/25 11:25:02;;;;;;;2.77;2.37;;;21.80;1.00;;;;;;6189478;28;20239;-50
2022/05/25 11:28:22;;;;;;;2.27;2.17;;;21.70;1.00;;;;;;6195134;28;20248;-52
2022/05/25 11:31:35;;;;;;;3.70;2.07;;;21.30;1.00;;;;;;6187854;28;20240;-50
2022/05/25 11:34:53;;;;;;;2.07;1.87;;;21.50;1.00;;;;;;6183132;28;20776;-51
2022/05/25 11:38:11;;;;;;;2.00;1.80;;;21.60;1.00;;;;;;6186753;28;20318;-50
2022/05/25 11:41:26;;;;;;;2.00;1.90;;;21.60;1.00;;;;;;6177823;28;20236;-52
2022/05/25 11:44:44;;;;;;;2.03;1.80;;;21.60;1.00;;;;;;6194995;28;20604;-50
2022/05/25 11:47:59;;;;;;;2.17;2.07;;;21.80;1.00;;;;;;6180247;28;20334;-51
2022/05/25 11:51:13;;;;;;;1.97;1.97;;;21.80;1.00;;;;;;6177992;28;20302;-51
2022/05/25 11:54:30;;;;;;;1.80;1.70;;;21.90;1.00;;;;;;6186518;28;20355;-52
2022/05/25 11:57:40;;;;;;;2.00;1.90;;;21.90;1.00;;;;;;6162325;28;20526;-50
2022/05/25 12:00:53;;;;;;;2.83;2.13;;;22.20;1.00;;;;;;6186237;28;20244;-50
2022/05/25 12:04:33;;;;;;;2.43;1.97;;;22.40;1.00;;;;;;6201388;28;20281;-51
2022/05/25 12:07:54;;;;;;;2.10;2.00;;;22.40;1.00;;;;;;6184565;28;20240;-52
2022/05/25 12:11:07;;;;;;;1.90;1.90;;;22.30;1.00;;;;;;6183829;28;20335;-50
2022/05/25 12:14:36;;;;;;;1.90;1.90;;;21.90;1.00;;;;;;6181236;28;20236;-52
2022/05/25 12:17:53;;;;;;;1.90;1.80;;;21.50;1.00;;;;;;6180587;28;20236;-52
2022/05/25 12:21:00;;;;;;;1.80;1.80;;;21.30;1.00;;;;;;6179795;28;20312;-50
2022/05/25 12:24:06;;;;;;;1.97;1.83;;;21.30;1.00;;;;;;6190845;28;20250;-52
2022/05/25 12:27:12;;;;;;;2.10;2.00;;;21.10;1.00;;;;;;6187068;28;20737;-50
2022/05/25 12:30:20;;;;;;;3.00;1.70;;;21.00;1.00;;;;;;6181216;28;20301;-51
2022/05/25 12:33:25;;;;;;;2.73;2.40;;;21.10;1.00;;;;;;6182827;28;20793;-51
2022/05/25 12:36:30;;;;;;;7.00;1.90;;;21.30;1.00;;;;;;6176442;28;20326;-52
2022/05/25 12:39:56;;;;;;;1.50;1.50;;;21.60;1.00;;;;;;6184158;28;20618;-50
2022/05/25 12:43:01;;;;;;;3.27;2.10;;;21.80;1.00;;;;;;6191672;28;20760;-51
2022/05/25 12:49:38;;;;;;;3.27;2.07;;;21.90;1.00;;;;;;6123972;28;20245;-51
2022/05/25 12:52:43;;;;;;;2.20;2.10;;;22.00;1.00;;;;;;6181860;28;20402;-48
2022/05/25 12:55:54;;;;;;;2.63;2.00;;;22.20;1.00;;;;;;6187707;28;20243;-50
2022/05/25 12:59:04;;;;;;;2.00;1.90;;;22.20;1.00;;;;;;6176123;28;20267;-51
2022/05/25 13:02:24;;;;;;;1.80;1.80;;;22.20;1.00;;;;;;6184547;28;20235;-57
2022/05/25 13:05:54;;;;;;;1.93;1.83;;;22.10;1.00;;;;;;6181002;28;20270;-51
2022/05/25 13:09:01;;;;;;;3.00;1.87;;;22.10;1.00;;;;;;6177939;28;20618;-52
2022/05/25 13:12:43;;;;;;;3.27;3.00;;;21.80;1.00;;;;;;6183051;28;20602;-50
2022/05/25 13:15:48;;;;;;;2.80;2.60;;;21.50;1.00;;;;;;6182580;28;20579;-51
2022/05/25 13:18:55;;;;;;;2.27;2.23;;;21.50;1.00;;;;;;6176493;28;20630;-57
2022/05/25 13:22:14;;;;;;;2.10;2.10;;;21.30;1.00;;;;;;6180295;28;20240;-50
2022/05/25 13:25:30;;;;;;;1.83;1.83;;;21.40;1.00;;;;;;6187860;28;20918;-50
2022/05/25 13:28:45;;;;;;;2.50;2.00;;;21.30;1.00;;;;;;6185688;28;20475;-52
2022/05/25 13:31:55;;;;;;;1.77;1.77;;;21.00;1.00;;;;;;6179786;28;20282;-51
2022/05/25 13:34:58;;;;;;;2.37;2.20;;;20.80;1.00;;;;;;6178966;28;20298;-52
2022/05/25 13:38:10;;;;;;;3.23;2.13;;;20.80;1.00;;;;;;6181444;28;20704;-51
2022/05/25 13:41:16;;;;;;;2.33;2.13;;;20.60;1.00;;;;;;6179999;28;20260;-52
2022/05/25 13:44:23;;;;;;;1.87;1.70;;;20.40;1.00;;;;;;6198982;28;20523;-52
2022/05/25 13:47:28;;;;;;;2.17;2.07;;;20.30;1.00;;;;;;6194729;28;20521;-51
2022/05/25 13:50:32;;;;;;;2.20;2.10;;;20.20;1.00;;;;;;6173177;28;20297;-51
2022/05/25 13:53:37;;;;;;;4.90;2.00;;;20.10;1.00;;;;;;6194744;28;20264;-51
2022/05/25 13:56:45;;;;;;;2.20;2.07;;;20.00;1.00;;;;;;6194453;28;20243;-52
2022/05/25 13:59:47;;;;;;;2.60;2.30;;;19.90;1.00;;;;;;6187207;28;20317;-52
2022/05/25 14:02:55;;;;;;;2.83;1.93;;;20.00;1.00;;;;;;6180940;28;20314;-51
2022/05/25 14:06:16;;;;;;;2.00;1.90;;;19.70;1.00;;;;;;6193030;28;20950;-51
2022/05/25 14:12:40;;;;;;;1.70;1.70;;;19.80;1.00;;;;;;6194077;28;20256;-52
2022/05/25 14:15:57;;;;;;;1.80;1.77;;;20.00;1.00;;;;;;6187450;28;20382;-52
2022/05/25 14:19:05;;;;;;;2.10;2.00;;;20.20;1.00;;;;;;6185087;28;20263;-51
2022/05/25 14:22:09;;;;;;;3.93;1.90;;;20.50;1.00;;;;;;6177588;28;20243;-50
2022/05/25 14:25:18;;;;;;;1.77;1.77;;;20.50;1.00;;;;;;6189295;28;20344;-50
2022/05/25 14:28:31;;;;;;;1.80;1.80;;;20.40;1.00;;;;;;6182618;28;20868;-50
2022/05/25 14:31:41;;;;;;;1.70;1.70;;;20.40;1.00;;;;;;6184311;28;20228;-50
2022/05/25 14:34:48;;;;;;;3.37;1.70;;;20.50;1.00;;;;;;6179714;28;20323;-51
2022/05/25 14:37:51;;;;;;;1.87;1.80;;;20.70;1.00;;;;;;6189968;28;20276;-50
2022/05/25 14:41:23;;;;;;;1.73;1.70;;;20.70;1.00;;;;;;6182156;28;20228;-51
2022/05/25 14:44:38;;;;;;;2.00;2.00;;;20.60;1.00;;;;;;6185629;28;20311;-51
2022/05/25 14:47:45;;;;;;;1.70;1.70;;;20.70;1.00;;;;;;6194063;28;20296;-49
2022/05/25 14:50:59;;;;;;;1.87;1.87;;;20.70;1.00;;;;;;6181523;28;20350;-51
2022/05/25 14:54:10;;;;;;;1.67;1.67;;;20.80;1.00;;;;;;6190227;28;20246;-51
2022/05/25 14:57:14;;;;;;;1.97;1.87;;;20.90;1.00;;;;;;6186982;28;20236;-51
2022/05/25 15:00:22;;;;;;;2.00;1.90;;;21.00;1.00;;;;;;6185919;28;20752;-51
2022/05/25 15:03:31;;;;;;;2.47;1.90;;;21.10;1.00;;;;;;6189978;28;20291;-50
2022/05/25 15:06:58;;;;;;;2.20;2.07;;;21.00;1.00;;;;;;6190229;28;20256;-52
2022/05/25 15:10:11;;;;;;;1.70;1.70;;;21.00;1.00;;;;;;6182750;28;20238;-50
2022/05/25 15:13:24;;;;;;;1.70;1.70;;;21.10;1.00;;;;;;6194079;28;20261;-51
2022/05/25 15:19:48;;;;;;;1.60;1.60;;;21.70;1.00;;;;;;6185762;28;20870;-50
2022/05/25 15:22:55;;;;;;;4.40;2.03;;;21.70;1.00;;;;;;6199772;28;20239;-51
2022/05/25 15:26:16;;;;;;;1.67;1.63;;;21.80;1.00;;;;;;6193167;28;20833;-51
2022/05/25 15:29:29;;;;;;;2.00;1.90;;;21.70;1.00;;;;;;6186420;28;20251;-51
2022/05/25 15:32:34;;;;;;;1.73;1.73;;;21.80;1.00;;;;;;6193299;28;20239;-55
2022/05/25 15:35:37;;;;;;;1.57;1.57;;;21.60;1.00;;;;;;6174262;28;20437;-51
2022/05/25 15:38:42;;;;;;;1.63;1.63;;;21.40;1.00;;;;;;6179040;28;20248;-49
2022/05/25 15:41:45;;;;;;;1.77;1.77;;;21.30;1.00;;;;;;6182153;28;20343;-51
2022/05/25 15:44:48;;;;;;;1.83;1.77;;;21.50;1.00;;;;;;6185877;28;20764;-52
2022/05/25 15:47:52;;;;;;;1.90;1.80;;;21.40;1.00;;;;;;6189323;28;20244;-50
2022/05/25 15:50:55;;;;;;;1.77;1.77;;;21.40;1.00;;;;;;6170110;28;20476;-51
2022/05/25 15:54:01;;;;;;;2.80;1.47;;;21.40;1.00;;;;;;6186503;28;20295;-52
2022/05/25 15:57:04;;;;;;;1.87;1.87;;;21.20;1.00;;;;;;6194417;28;20235;-51
2022/05/25 16:00:11;;;;;;;3.43;1.80;;;21.10;1.00;;;;;;6180504;28;20855;-51
2022/05/25 16:03:19;;;;;;;2.20;2.10;;;21.20;1.00;;;;;;6190068;28;20772;-52
2022/05/25 16:06:22;;;;;;;2.70;1.80;;;21.50;1.00;;;;;;6189887;28;20240;-51
2022/05/25 16:09:27;;;;;;;4.53;1.97;;;21.40;1.00;;;;;;6181717;28;20375;-51
2022/05/25 16:12:29;;;;;;;2.17;2.03;;;21.10;1.00;;;;;;6181002;28;20245;-51
2022/05/25 16:15:33;;;;;;;3.17;2.10;;;21.00;1.00;;;;;;6177041;28;20761;-50
2022/05/25 16:18:36;;;;;;;1.87;1.87;;;20.90;1.00;;;;;;6186470;28;20724;-51
2022/05/25 16:21:39;;;;;;;2.00;1.90;;;20.80;1.00;;;;;;6176562;28;20330;-50
2022/05/25 16:24:45;;;;;;;1.70;1.70;;;20.70;1.00;;;;;;6189625;28;20242;-53
2022/05/25 16:27:48;;;;;;;1.90;1.80;;;20.80;1.00;;;;;;6190248;28;20390;-51
2022/05/25 16:30:51;;;;;;;2.00;1.90;;;20.70;1.00;;;;;;6187210;28;20250;-51
2022/05/25 16:33:54;;;;;;;2.80;1.87;;;20.50;1.00;;;;;;6192303;28;20239;-51
2022/05/25 16:36:57;;;;;;;2.23;2.23;;;20.40;1.00;;;;;;6188487;28;20302;-51
2022/05/25 16:40:01;;;;;;;1.97;1.87;;;20.40;1.00;;;;;;6177546;28;20300;-52
2022/05/25 16:43:05;;;;;;;1.93;1.93;;;20.30;1.00;;;;;;6184284;28;20236;-52
2022/05/25 16:46:08;;;;;;;2.20;2.10;;;20.30;1.00;;;;;;6174664;28;20261;-51
2022/05/25 16:49:12;;;;;;;2.27;2.10;;;20.20;1.00;;;;;;6177100;28;20238;-51
2022/05/25 16:52:15;;;;;;;2.00;1.90;;;20.10;1.00;;;;;;6179075;28;20238;-51
2022/05/25 16:55:20;;;;;;;2.03;2.00;;;20.00;1.00;;;;;;6177140;28;20602;-53
2022/05/25 16:58:23;;;;;;;2.17;2.07;;;20.00;1.00;;;;;;6179232;28;20302;-51